sensor_id;sensor_type;location;lat;lon;timestamp;pressure;altitude;pressure_sealevel;temperature;humidity
6532;BME280;3299;42.004;24.868;2023-11-22T00:01:52;97586.69;;;10.86;96.61
6532;BME280;3299;42.004;24.868;2023-11-22T00:04:17;97579.28;;;10.81;97.34
6532;BME280;3299;42.004;24.868;2023-11-22T00:06:43;97534.16;;;10.54;98.58
6532;BME280;3299;42.004;24.868;2023-11-22T00:09:08;97563.44;;;10.75;97.92
6532;BME280;3299;42.004;24.868;2023-11-22T00:11:35;97486.09;;;10.31;97.97
6532;BME280;3299;42.004;24.868;2023-11-22T00:14:00;97537.56;;;10.75;96.86
6532;BME280;3299;42.004;24.868;2023-11-22T00:16:25;97471.94;;;10.25;96.87
6532;BME280;3299;42.004;24.868;2023-11-22T00:18:51;97544.72;;;10.62;98.27
6532;BME280;3299;42.004;24.868;2023-11-22T00:21:16;97469.53;;;10.02;99.85
6532;BME280;3299;42.004;24.868;2023-11-22T00:23:42;97513.28;;;10.25;100.00
6532;BME280;3299;42.004;24.868;2023-11-22T00:26:08;97562.03;;;10.50;100.00
6532;BME280;3299;42.004;24.868;2023-11-22T00:28:33;97505.69;;;10.13;100.00
6532;BME280;3299;42.004;24.868;2023-11-22T00:30:59;97461.81;;;9.91;100.00
6532;BME280;3299;42.004;24.868;2023-11-22T00:33:25;97512.00;;;10.20;100.00
6532;BME280;3299;42.004;24.868;2023-11-22T00:35:51;97509.31;;;10.21;100.00
6532;BME280;3299;42.004;24.868;2023-11-22T00:38:18;97479.16;;;10.11;100.00
6532;BME280;3299;42.004;24.868;2023-11-22T00:40:44;97549.38;;;10.47;100.00
6532;BME280;3299;42.004;24.868;2023-11-22T00:43:09;97513.06;;;10.17;100.00
6532;BME280;3299;42.004;24.868;2023-11-22T00:45:35;97522.50;;;10.18;100.00
6532;BME280;3299;42.004;24.868;2023-11-22T00:48:00;97474.50;;;9.94;100.00
6532;BME280;3299;42.004;24.868;2023-11-22T00:50:26;97477.09;;;10.05;100.00
6532;BME280;3299;42.004;24.868;2023-11-22T00:52:51;97471.53;;;10.09;100.00
6532;BME280;3299;42.004;24.868;2023-11-22T00:55:17;97525.66;;;10.42;100.00
6532;BME280;3299;42.004;24.868;2023-11-22T00:57:42;97527.41;;;10.42;100.00
6532;BME280;3299;42.004;24.868;2023-11-22T01:00:09;97561.59;;;10.66;100.00
6532;BME280;3299;42.004;24.868;2023-11-22T01:02:35;97570.06;;;10.47;100.00
6532;BME280;3299;42.004;24.868;2023-11-22T01:05:07;97460.41;;;9.98;100.00
6532;BME280;3299;42.004;24.868;2023-11-22T01:07:37;97464.28;;;10.03;100.00
6532;BME280;3299;42.004;24.868;2023-11-22T01:10:03;97544.78;;;10.51;100.00
6532;BME280;3299;42.004;24.868;2023-11-22T01:12:28;97555.69;;;10.54;100.00
6532;BME280;3299;42.004;24.868;2023-11-22T01:14:53;97506.34;;;10.26;100.00
6532;BME280;3299;42.004;24.868;2023-11-22T01:17:19;97497.38;;;10.30;100.00
6532;BME280;3299;42.004;24.868;2023-11-22T01:19:44;97523.56;;;10.36;100.00
6532;BME280;3299;42.004;24.868;2023-11-22T01:22:10;97531.41;;;10.46;100.00
6532;BME280;3299;42.004;24.868;2023-11-22T01:24:35;97447.22;;;10.01;100.00
6532;BME280;3299;42.004;24.868;2023-11-22T01:27:03;97455.22;;;10.09;100.00
6532;BME280;3299;42.004;24.868;2023-11-22T01:29:28;97447.31;;;10.10;100.00
6532;BME280;3299;42.004;24.868;2023-11-22T01:31:54;97491.53;;;10.28;100.00
6532;BME280;3299;42.004;24.868;2023-11-22T01:34:20;97480.75;;;10.23;100.00
6532;BME280;3299;42.004;24.868;2023-11-22T01:36:49;97521.84;;;10.46;100.00
6532;BME280;3299;42.004;24.868;2023-11-22T01:39:15;97443.69;;;10.02;100.00
6532;BME280;3299;42.004;24.868;2023-11-22T01:41:40;97400.59;;;9.82;100.00
6532;BME280;3299;42.004;24.868;2023-11-22T01:44:08;97448.84;;;10.13;100.00
6532;BME280;3299;42.004;24.868;2023-11-22T01:46:33;97516.50;;;10.59;100.00
6532;BME280;3299;42.004;24.868;2023-11-22T01:48:59;97446.00;;;10.16;100.00
6532;BME280;3299;42.004;24.868;2023-11-22T01:51:25;97534.56;;;10.70;100.00
6532;BME280;3299;42.004;24.868;2023-11-22T01:53:54;97531.00;;;10.71;100.00
6532;BME280;3299;42.004;24.868;2023-11-22T01:56:22;97444.16;;;10.07;100.00
6532;BME280;3299;42.004;24.868;2023-11-22T01:58:49;97524.94;;;10.61;100.00
6532;BME280;3299;42.004;24.868;2023-11-22T02:01:15;97445.31;;;10.14;100.00
6532;BME280;3299;42.004;24.868;2023-11-22T02:03:41;97499.03;;;10.51;100.00
6532;BME280;3299;42.004;24.868;2023-11-22T02:06:07;97521.56;;;10.60;100.00
6532;BME280;3299;42.004;24.868;2023-11-22T02:08:34;97439.84;;;10.28;99.75
6532;BME280;3299;42.004;24.868;2023-11-22T02:11:01;97435.16;;;10.22;100.00
6532;BME280;3299;42.004;24.868;2023-11-22T02:13:32;97452.88;;;10.47;99.88
6532;BME280;3299;42.004;24.868;2023-11-22T02:15:58;97495.88;;;10.68;99.38
6532;BME280;3299;42.004;24.868;2023-11-22T02:18:26;97471.25;;;10.44;99.38
6532;BME280;3299;42.004;24.868;2023-11-22T02:20:52;97493.34;;;10.57;99.68
6532;BME280;3299;42.004;24.868;2023-11-22T02:23:18;97492.22;;;10.50;100.00
6532;BME280;3299;42.004;24.868;2023-11-22T02:25:44;97500.94;;;10.49;100.00
6532;BME280;3299;42.004;24.868;2023-11-22T02:28:11;97427.31;;;9.92;100.00
6532;BME280;3299;42.004;24.868;2023-11-22T02:30:37;97520.66;;;10.30;100.00
6532;BME280;3299;42.004;24.868;2023-11-22T02:33:03;97464.28;;;10.03;100.00
6532;BME280;3299;42.004;24.868;2023-11-22T02:35:30;97482.31;;;10.14;100.00
6532;BME280;3299;42.004;24.868;2023-11-22T02:37:57;97425.41;;;9.94;100.00
6532;BME280;3299;42.004;24.868;2023-11-22T02:40:23;97420.28;;;9.83;100.00
6532;BME280;3299;42.004;24.868;2023-11-22T02:42:50;97464.59;;;10.10;100.00
6532;BME280;3299;42.004;24.868;2023-11-22T02:45:17;97507.00;;;10.39;100.00
6532;BME280;3299;42.004;24.868;2023-11-22T02:47:43;97499.47;;;10.36;100.00
6532;BME280;3299;42.004;24.868;2023-11-22T02:50:16;97477.47;;;10.21;100.00
6532;BME280;3299;42.004;24.868;2023-11-22T02:52:41;97476.53;;;10.22;100.00
6532;BME280;3299;42.004;24.868;2023-11-22T02:55:08;97433.06;;;9.95;100.00
6532;BME280;3299;42.004;24.868;2023-11-22T02:57:37;97436.25;;;9.88;100.00
6532;BME280;3299;42.004;24.868;2023-11-22T03:00:05;97521.56;;;10.40;100.00
6532;BME280;3299;42.004;24.868;2023-11-22T03:02:31;97518.97;;;10.40;100.00
6532;BME280;3299;42.004;24.868;2023-11-22T03:04:59;97442.16;;;9.79;100.00
6532;BME280;3299;42.004;24.868;2023-11-22T03:07:29;97515.41;;;10.20;100.00
6532;BME280;3299;42.004;24.868;2023-11-22T03:09:55;97500.34;;;9.94;100.00
6532;BME280;3299;42.004;24.868;2023-11-22T03:12:20;97516.78;;;10.04;100.00
6532;BME280;3299;42.004;24.868;2023-11-22T03:14:46;97493.84;;;10.10;100.00
6532;BME280;3299;42.004;24.868;2023-11-22T03:17:14;97410.44;;;9.57;100.00
6532;BME280;3299;42.004;24.868;2023-11-22T03:19:39;97443.03;;;9.68;100.00
6532;BME280;3299;42.004;24.868;2023-11-22T03:22:05;97462.13;;;9.77;100.00
6532;BME280;3299;42.004;24.868;2023-11-22T03:24:32;97487.41;;;10.05;100.00
6532;BME280;3299;42.004;24.868;2023-11-22T03:27:00;97476.41;;;9.92;100.00
6532;BME280;3299;42.004;24.868;2023-11-22T03:29:26;97478.50;;;9.98;100.00
6532;BME280;3299;42.004;24.868;2023-11-22T03:31:52;97438.88;;;9.77;100.00
6532;BME280;3299;42.004;24.868;2023-11-22T03:34:19;97393.19;;;9.57;100.00
6532;BME280;3299;42.004;24.868;2023-11-22T03:36:44;97385.47;;;9.46;100.00
6532;BME280;3299;42.004;24.868;2023-11-22T03:39:10;97379.38;;;9.47;100.00
6532;BME280;3299;42.004;24.868;2023-11-22T03:41:45;97460.13;;;9.80;100.00
6532;BME280;3299;42.004;24.868;2023-11-22T03:44:10;97409.41;;;9.48;100.00
6532;BME280;3299;42.004;24.868;2023-11-22T03:46:37;97497.75;;;9.94;100.00
6532;BME280;3299;42.004;24.868;2023-11-22T03:49:04;97501.59;;;9.99;100.00
6532;BME280;3299;42.004;24.868;2023-11-22T03:51:29;97463.50;;;9.92;100.00
6532;BME280;3299;42.004;24.868;2023-11-22T03:53:55;97410.66;;;9.53;100.00
6532;BME280;3299;42.004;24.868;2023-11-22T03:56:21;97412.19;;;9.56;100.00
6532;BME280;3299;42.004;24.868;2023-11-22T03:58:46;97414.41;;;9.61;100.00
6532;BME280;3299;42.004;24.868;2023-11-22T04:01:13;97434.78;;;9.74;100.00
6532;BME280;3299;42.004;24.868;2023-11-22T04:03:40;97500.63;;;10.11;100.00
6532;BME280;3299;42.004;24.868;2023-11-22T04:06:06;97442.91;;;9.70;100.00
6532;BME280;3299;42.004;24.868;2023-11-22T04:08:31;97493.16;;;9.97;100.00
6532;BME280;3299;42.004;24.868;2023-11-22T04:10:56;97429.47;;;9.56;100.00
6532;BME280;3299;42.004;24.868;2023-11-22T04:13:22;97511.47;;;10.05;100.00
6532;BME280;3299;42.004;24.868;2023-11-22T04:15:50;97479.22;;;9.89;100.00
6532;BME280;3299;42.004;24.868;2023-11-22T04:18:15;97437.16;;;9.67;100.00
6532;BME280;3299;42.004;24.868;2023-11-22T04:20:41;97464.75;;;9.97;100.00
6532;BME280;3299;42.004;24.868;2023-11-22T04:23:07;97513.91;;;10.38;99.81
6532;BME280;3299;42.004;24.868;2023-11-22T04:25:36;97460.25;;;10.10;99.71
6532;BME280;3299;42.004;24.868;2023-11-22T04:28:02;97502.75;;;10.38;100.00
6532;BME280;3299;42.004;24.868;2023-11-22T04:30:27;97426.66;;;9.79;100.00
6532;BME280;3299;42.004;24.868;2023-11-22T04:32:53;97451.25;;;9.94;100.00
6532;BME280;3299;42.004;24.868;2023-11-22T04:35:18;97498.56;;;10.26;100.00
6532;BME280;3299;42.004;24.868;2023-11-22T04:37:44;97437.19;;;9.87;100.00
6532;BME280;3299;42.004;24.868;2023-11-22T04:40:10;97513.97;;;10.27;100.00
6532;BME280;3299;42.004;24.868;2023-11-22T04:42:36;97545.34;;;10.34;100.00
6532;BME280;3299;42.004;24.868;2023-11-22T04:45:03;97498.47;;;9.85;100.00
6532;BME280;3299;42.004;24.868;2023-11-22T04:47:29;97494.38;;;9.82;100.00
6532;BME280;3299;42.004;24.868;2023-11-22T04:49:54;97555.16;;;10.19;100.00
6532;BME280;3299;42.004;24.868;2023-11-22T04:52:19;97550.84;;;10.09;100.00
6532;BME280;3299;42.004;24.868;2023-11-22T04:54:45;97524.44;;;9.94;100.00
6532;BME280;3299;42.004;24.868;2023-11-22T04:57:10;97486.56;;;9.62;100.00
6532;BME280;3299;42.004;24.868;2023-11-22T04:59:36;97572.44;;;10.08;100.00
6532;BME280;3299;42.004;24.868;2023-11-22T05:02:02;97508.66;;;9.66;100.00
6532;BME280;3299;42.004;24.868;2023-11-22T05:04:27;97582.84;;;10.17;100.00
6532;BME280;3299;42.004;24.868;2023-11-22T05:06:56;97507.56;;;9.79;100.00
6532;BME280;3299;42.004;24.868;2023-11-22T05:09:21;97533.09;;;9.93;100.00
6532;BME280;3299;42.004;24.868;2023-11-22T05:11:46;97576.63;;;10.20;100.00
6532;BME280;3299;42.004;24.868;2023-11-22T05:14:12;97530.91;;;9.78;100.00
6532;BME280;3299;42.004;24.868;2023-11-22T05:16:41;97524.13;;;9.77;100.00
6532;BME280;3299;42.004;24.868;2023-11-22T05:19:07;97545.44;;;9.90;100.00
6532;BME280;3299;42.004;24.868;2023-11-22T05:21:32;97577.59;;;10.08;100.00
6532;BME280;3299;42.004;24.868;2023-11-22T05:23:58;97601.75;;;10.29;100.00
6532;BME280;3299;42.004;24.868;2023-11-22T05:26:24;97516.84;;;9.71;100.00
6532;BME280;3299;42.004;24.868;2023-11-22T05:28:49;97596.88;;;10.15;100.00
6532;BME280;3299;42.004;24.868;2023-11-22T05:31:15;97548.28;;;9.87;100.00
6532;BME280;3299;42.004;24.868;2023-11-22T05:33:41;97547.84;;;9.71;100.00
6532;BME280;3299;42.004;24.868;2023-11-22T05:36:07;97615.84;;;10.25;100.00
6532;BME280;3299;42.004;24.868;2023-11-22T05:38:33;97573.38;;;9.96;100.00
6532;BME280;3299;42.004;24.868;2023-11-22T05:41:02;97621.97;;;10.24;100.00
6532;BME280;3299;42.004;24.868;2023-11-22T05:43:27;97618.59;;;10.23;100.00
6532;BME280;3299;42.004;24.868;2023-11-22T05:45:56;97608.41;;;10.11;100.00
6532;BME280;3299;42.004;24.868;2023-11-22T05:48:21;97552.06;;;9.72;100.00
6532;BME280;3299;42.004;24.868;2023-11-22T05:50:47;97618.84;;;9.98;100.00
6532;BME280;3299;42.004;24.868;2023-11-22T05:53:13;97559.50;;;9.55;100.00
6532;BME280;3299;42.004;24.868;2023-11-22T05:55:48;97646.91;;;10.14;100.00
6532;BME280;3299;42.004;24.868;2023-11-22T05:58:14;97550.56;;;9.58;100.00
6532;BME280;3299;42.004;24.868;2023-11-22T06:00:43;97604.88;;;9.90;100.00
6532;BME280;3299;42.004;24.868;2023-11-22T06:03:10;97623.63;;;10.03;100.00
6532;BME280;3299;42.004;24.868;2023-11-22T06:05:36;97640.06;;;10.24;100.00
6532;BME280;3299;42.004;24.868;2023-11-22T06:08:01;97563.56;;;9.79;100.00
6532;BME280;3299;42.004;24.868;2023-11-22T06:10:27;97601.81;;;10.07;100.00
6532;BME280;3299;42.004;24.868;2023-11-22T06:12:52;97578.81;;;9.93;100.00
6532;BME280;3299;42.004;24.868;2023-11-22T06:15:18;97630.78;;;10.21;100.00
6532;BME280;3299;42.004;24.868;2023-11-22T06:17:46;97520.03;;;9.63;100.00
6532;BME280;3299;42.004;24.868;2023-11-22T06:20:12;97643.78;;;10.42;100.00
6532;BME280;3299;42.004;24.868;2023-11-22T06:22:38;97656.47;;;10.45;100.00
6532;BME280;3299;42.004;24.868;2023-11-22T06:25:08;97649.91;;;10.41;100.00
6532;BME280;3299;42.004;24.868;2023-11-22T06:27:33;97625.72;;;10.31;100.00
6532;BME280;3299;42.004;24.868;2023-11-22T06:29:59;97672.88;;;10.55;100.00
6532;BME280;3299;42.004;24.868;2023-11-22T06:32:24;97676.66;;;10.62;100.00
6532;BME280;3299;42.004;24.868;2023-11-22T06:34:50;97688.59;;;10.74;100.00
6532;BME280;3299;42.004;24.868;2023-11-22T06:37:16;97616.25;;;10.09;100.00
6532;BME280;3299;42.004;24.868;2023-11-22T06:39:42;97678.81;;;10.46;100.00
6532;BME280;3299;42.004;24.868;2023-11-22T06:42:07;97658.91;;;10.46;100.00
6532;BME280;3299;42.004;24.868;2023-11-22T06:44:33;97545.72;;;9.76;100.00
6532;BME280;3299;42.004;24.868;2023-11-22T06:46:59;97625.47;;;10.34;100.00
6532;BME280;3299;42.004;24.868;2023-11-22T06:49:25;97702.19;;;10.87;99.88
6532;BME280;3299;42.004;24.868;2023-11-22T06:51:50;97705.22;;;10.92;99.58
6532;BME280;3299;42.004;24.868;2023-11-22T06:54:21;97615.59;;;10.39;99.66
6532;BME280;3299;42.004;24.868;2023-11-22T06:56:46;97630.25;;;10.49;99.02
6532;BME280;3299;42.004;24.868;2023-11-22T06:59:12;97632.44;;;10.54;99.15
6532;BME280;3299;42.004;24.868;2023-11-22T07:01:38;97708.91;;;11.10;97.45
6532;BME280;3299;42.004;24.868;2023-11-22T07:04:05;97676.03;;;10.90;97.33
6532;BME280;3299;42.004;24.868;2023-11-22T07:06:32;97644.88;;;10.60;98.78
6532;BME280;3299;42.004;24.868;2023-11-22T07:08:57;97718.97;;;11.13;98.36
6532;BME280;3299;42.004;24.868;2023-11-22T07:11:24;97689.19;;;10.98;97.77
6532;BME280;3299;42.004;24.868;2023-11-22T07:13:50;97713.06;;;11.22;98.27
6532;BME280;3299;42.004;24.868;2023-11-22T07:16:17;97714.19;;;11.29;97.84
6532;BME280;3299;42.004;24.868;2023-11-22T07:18:44;97619.88;;;10.81;96.56
6532;BME280;3299;42.004;24.868;2023-11-22T07:21:10;97668.38;;;11.20;95.54
6532;BME280;3299;42.004;24.868;2023-11-22T07:23:37;97702.31;;;11.47;95.49
6532;BME280;3299;42.004;24.868;2023-11-22T07:26:03;97619.44;;;10.96;95.36
6532;BME280;3299;42.004;24.868;2023-11-22T07:28:29;97712.13;;;11.43;95.35
6532;BME280;3299;42.004;24.868;2023-11-22T07:30:56;97621.69;;;10.90;95.57
6532;BME280;3299;42.004;24.868;2023-11-22T07:33:22;97673.91;;;11.15;95.22
6532;BME280;3299;42.004;24.868;2023-11-22T07:35:47;97688.56;;;11.26;94.50
6532;BME280;3299;42.004;24.868;2023-11-22T07:38:13;97642.16;;;10.93;94.90
6532;BME280;3299;42.004;24.868;2023-11-22T07:40:39;97696.97;;;11.18;95.63
6532;BME280;3299;42.004;24.868;2023-11-22T07:43:05;97698.47;;;11.21;95.88
6532;BME280;3299;42.004;24.868;2023-11-22T07:45:33;97661.97;;;11.03;96.01
6532;BME280;3299;42.004;24.868;2023-11-22T07:47:59;97656.22;;;11.00;95.92
6532;BME280;3299;42.004;24.868;2023-11-22T07:50:26;97731.75;;;11.46;95.87
6532;BME280;3299;42.004;24.868;2023-11-22T07:52:51;97686.66;;;11.28;95.80
6532;BME280;3299;42.004;24.868;2023-11-22T07:55:17;97662.88;;;11.13;95.76
6532;BME280;3299;42.004;24.868;2023-11-22T07:57:46;97724.00;;;11.46;95.67
6532;BME280;3299;42.004;24.868;2023-11-22T08:00:12;97730.75;;;11.58;94.90
6532;BME280;3299;42.004;24.868;2023-11-22T08:02:38;97749.59;;;11.60;95.07
6532;BME280;3299;42.004;24.868;2023-11-22T08:05:08;97699.63;;;11.28;94.94
6532;BME280;3299;42.004;24.868;2023-11-22T08:07:37;97751.47;;;11.58;95.00
6532;BME280;3299;42.004;24.868;2023-11-22T08:10:07;97726.84;;;11.43;94.66
6532;BME280;3299;42.004;24.868;2023-11-22T08:12:45;97709.09;;;11.38;94.17
6532;BME280;3299;42.004;24.868;2023-11-22T08:15:10;97724.00;;;11.46;93.78
6532;BME280;3299;42.004;24.868;2023-11-22T08:17:41;97744.28;;;11.61;93.56
6532;BME280;3299;42.004;24.868;2023-11-22T08:20:07;97733.34;;;11.58;93.84
6532;BME280;3299;42.004;24.868;2023-11-22T08:22:38;97654.97;;;11.15;92.46
6532;BME280;3299;42.004;24.868;2023-11-22T08:25:04;97723.47;;;11.52;93.14
6532;BME280;3299;42.004;24.868;2023-11-22T08:27:30;97682.94;;;11.21;93.67
6532;BME280;3299;42.004;24.868;2023-11-22T08:29:56;97733.84;;;11.52;94.77
6532;BME280;3299;42.004;24.868;2023-11-22T08:32:22;97677.44;;;11.14;94.63
6532;BME280;3299;42.004;24.868;2023-11-22T08:34:50;97745.16;;;11.51;95.64
6532;BME280;3299;42.004;24.868;2023-11-22T08:37:17;97738.59;;;11.47;96.26
6532;BME280;3299;42.004;24.868;2023-11-22T08:39:42;97747.81;;;11.40;96.81
6532;BME280;3299;42.004;24.868;2023-11-22T08:42:08;97734.81;;;11.30;97.90
6532;BME280;3299;42.004;24.868;2023-11-22T08:44:37;97689.75;;;11.01;98.67
6532;BME280;3299;42.004;24.868;2023-11-22T08:47:03;97721.53;;;11.24;97.99
6532;BME280;3299;42.004;24.868;2023-11-22T08:49:29;97738.28;;;11.40;97.56
6532;BME280;3299;42.004;24.868;2023-11-22T08:51:54;97724.56;;;11.29;97.44
6532;BME280;3299;42.004;24.868;2023-11-22T08:54:20;97725.25;;;11.31;98.22
6532;BME280;3299;42.004;24.868;2023-11-22T08:56:45;97672.31;;;11.03;97.96
6532;BME280;3299;42.004;24.868;2023-11-22T08:59:12;97747.44;;;11.44;97.74
6532;BME280;3299;42.004;24.868;2023-11-22T09:01:38;97751.81;;;11.44;97.72
6532;BME280;3299;42.004;24.868;2023-11-22T09:04:03;97740.16;;;11.38;98.03
6532;BME280;3299;42.004;24.868;2023-11-22T09:06:29;97739.41;;;11.47;98.33
6532;BME280;3299;42.004;24.868;2023-11-22T09:08:55;97707.13;;;11.31;98.31
6532;BME280;3299;42.004;24.868;2023-11-22T09:11:21;97749.84;;;11.57;98.29
6532;BME280;3299;42.004;24.868;2023-11-22T09:13:48;97689.13;;;11.29;97.98
6532;BME280;3299;42.004;24.868;2023-11-22T09:16:15;97745.34;;;11.79;96.83
6532;BME280;3299;42.004;24.868;2023-11-22T09:18:42;97765.22;;;11.90;96.27
6532;BME280;3299;42.004;24.868;2023-11-22T09:21:08;97673.38;;;11.42;95.79
6532;BME280;3299;42.004;24.868;2023-11-22T09:23:35;97743.69;;;11.99;95.35
6532;BME280;3299;42.004;24.868;2023-11-22T09:26:04;97685.19;;;11.76;94.56
6532;BME280;3299;42.004;24.868;2023-11-22T09:28:30;97682.03;;;11.72;93.96
6532;BME280;3299;42.004;24.868;2023-11-22T09:30:56;97694.50;;;11.88;93.53
6532;BME280;3299;42.004;24.868;2023-11-22T09:33:31;97744.47;;;12.20;93.41
6532;BME280;3299;42.004;24.868;2023-11-22T09:35:56;97665.53;;;11.73;93.06
6532;BME280;3299;42.004;24.868;2023-11-22T09:38:23;97746.94;;;12.21;92.50
6532;BME280;3299;42.004;24.868;2023-11-22T09:40:49;97668.94;;;11.74;91.70
6532;BME280;3299;42.004;24.868;2023-11-22T09:43:18;97741.16;;;12.18;91.39
6532;BME280;3299;42.004;24.868;2023-11-22T09:45:44;97660.22;;;11.75;91.38
6532;BME280;3299;42.004;24.868;2023-11-22T09:48:21;97742.19;;;12.36;91.08
6532;BME280;3299;42.004;24.868;2023-11-22T09:53:41;97659.47;;;11.93;91.92
6532;BME280;3299;42.004;24.868;2023-11-22T09:56:11;97665.78;;;12.00;91.59
6532;BME280;3299;42.004;24.868;2023-11-22T09:58:40;97724.97;;;12.44;91.90
6532;BME280;3299;42.004;24.868;2023-11-22T10:01:11;97747.31;;;12.66;91.83
6532;BME280;3299;42.004;24.868;2023-11-22T10:03:37;97683.03;;;12.30;91.83
6532;BME280;3299;42.004;24.868;2023-11-22T10:06:02;97735.00;;;12.68;92.07
6532;BME280;3299;42.004;24.868;2023-11-22T10:08:30;97711.91;;;12.55;92.05
6532;BME280;3299;42.004;24.868;2023-11-22T10:10:55;97749.09;;;12.84;91.90
6532;BME280;3299;42.004;24.868;2023-11-22T10:13:22;97683.34;;;12.46;91.39
6532;BME280;3299;42.004;24.868;2023-11-22T10:15:51;97724.38;;;12.71;91.30
6532;BME280;3299;42.004;24.868;2023-11-22T10:18:18;97704.97;;;12.65;91.94
6532;BME280;3299;42.004;24.868;2023-11-22T10:20:46;97715.63;;;12.81;92.56
6532;BME280;3299;42.004;24.868;2023-11-22T10:23:20;97745.75;;;13.12;93.77
6532;BME280;3299;42.004;24.868;2023-11-22T10:25:52;97647.03;;;12.55;94.90
6532;BME280;3299;42.004;24.868;2023-11-22T10:28:19;97708.53;;;12.93;96.43
6532;BME280;3299;42.004;24.868;2023-11-22T10:30:49;97762.28;;;13.21;96.79
6532;BME280;3299;42.004;24.868;2023-11-22T10:33:20;97682.44;;;12.75;97.30
6532;BME280;3299;42.004;24.868;2023-11-22T10:35:51;97703.09;;;12.96;97.44
6532;BME280;3299;42.004;24.868;2023-11-22T10:38:17;97727.31;;;13.06;97.60
6532;BME280;3299;42.004;24.868;2023-11-22T10:40:43;97679.44;;;12.80;97.38
6532;BME280;3299;42.004;24.868;2023-11-22T10:43:15;97695.41;;;12.85;97.32
6532;BME280;3299;42.004;24.868;2023-11-22T10:45:43;97689.56;;;12.83;96.00
6532;BME280;3299;42.004;24.868;2023-11-22T10:48:16;97759.25;;;13.25;97.28
6532;BME280;3299;42.004;24.868;2023-11-22T10:50:45;97694.03;;;12.81;99.04
6532;BME280;3299;42.004;24.868;2023-11-22T10:53:12;97713.91;;;13.01;100.00
6532;BME280;3299;42.004;24.868;2023-11-22T10:55:44;97717.28;;;13.11;100.00
6532;BME280;3299;42.004;24.868;2023-11-22T10:58:10;97697.63;;;12.99;100.00
6532;BME280;3299;42.004;24.868;2023-11-22T11:00:40;97682.00;;;12.89;100.00
6532;BME280;3299;42.004;24.868;2023-11-22T11:03:20;97759.41;;;13.43;100.00
6532;BME280;3299;42.004;24.868;2023-11-22T11:05:53;97743.13;;;13.22;100.00
6532;BME280;3299;42.004;24.868;2023-11-22T11:08:20;97757.50;;;13.26;100.00
6532;BME280;3299;42.004;24.868;2023-11-22T11:10:48;97743.00;;;13.14;100.00
6532;BME280;3299;42.004;24.868;2023-11-22T11:13:14;97753.41;;;13.14;100.00
6532;BME280;3299;42.004;24.868;2023-11-22T11:15:42;97723.34;;;13.02;100.00
6532;BME280;3299;42.004;24.868;2023-11-22T11:18:13;97722.78;;;13.08;100.00
6532;BME280;3299;42.004;24.868;2023-11-22T11:23:26;97769.69;;;13.35;100.00
6532;BME280;3299;42.004;24.868;2023-11-22T11:25:59;97688.28;;;12.87;100.00
6532;BME280;3299;42.004;24.868;2023-11-22T11:28:44;97701.44;;;12.95;100.00
6532;BME280;3299;42.004;24.868;2023-11-22T11:31:10;97689.38;;;12.94;100.00
6532;BME280;3299;42.004;24.868;2023-11-22T11:33:53;97703.34;;;13.02;100.00
6532;BME280;3299;42.004;24.868;2023-11-22T11:36:28;97692.00;;;12.84;100.00
6532;BME280;3299;42.004;24.868;2023-11-22T11:38:56;97739.19;;;13.18;100.00
6532;BME280;3299;42.004;24.868;2023-11-22T11:41:26;97774.31;;;13.41;100.00
6532;BME280;3299;42.004;24.868;2023-11-22T11:43:53;97717.16;;;13.12;100.00
6532;BME280;3299;42.004;24.868;2023-11-22T11:46:20;97698.16;;;13.02;99.75
6532;BME280;3299;42.004;24.868;2023-11-22T11:48:50;97732.06;;;13.29;97.02
6532;BME280;3299;42.004;24.868;2023-11-22T11:51:21;97778.13;;;13.56;98.04
6532;BME280;3299;42.004;24.868;2023-11-22T11:53:48;97754.09;;;13.44;98.53
6532;BME280;3299;42.004;24.868;2023-11-22T11:56:14;97694.34;;;13.06;97.19
6532;BME280;3299;42.004;24.868;2023-11-22T11:58:43;97720.03;;;13.19;97.70
6532;BME280;3299;42.004;24.868;2023-11-22T12:01:09;97728.25;;;13.24;98.74
6532;BME280;3299;42.004;24.868;2023-11-22T12:03:36;97779.09;;;13.55;99.19
6532;BME280;3299;42.004;24.868;2023-11-22T12:06:04;97764.59;;;13.43;99.88
6532;BME280;3299;42.004;24.868;2023-11-22T12:08:30;97768.16;;;13.42;100.00
6532;BME280;3299;42.004;24.868;2023-11-22T12:10:58;97773.47;;;13.50;98.63
6532;BME280;3299;42.004;24.868;2023-11-22T12:13:24;97787.44;;;13.58;98.25
6532;BME280;3299;42.004;24.868;2023-11-22T12:15:54;97748.47;;;13.30;99.16
6532;BME280;3299;42.004;24.868;2023-11-22T12:18:19;97754.22;;;13.33;98.24
6532;BME280;3299;42.004;24.868;2023-11-22T12:20:58;97703.78;;;12.98;100.00
6532;BME280;3299;42.004;24.868;2023-11-22T12:23:25;97765.97;;;13.47;99.70
6532;BME280;3299;42.004;24.868;2023-11-22T12:25:59;97722.09;;;13.15;100.00
6532;BME280;3299;42.004;24.868;2023-11-22T12:28:27;97700.38;;;13.07;100.00
6532;BME280;3299;42.004;24.868;2023-11-22T12:30:53;97704.88;;;13.05;100.00
6532;BME280;3299;42.004;24.868;2023-11-22T12:33:18;97764.63;;;13.33;100.00
6532;BME280;3299;42.004;24.868;2023-11-22T12:35:47;97797.69;;;13.60;100.00
6532;BME280;3299;42.004;24.868;2023-11-22T12:38:14;97739.44;;;13.34;100.00
6532;BME280;3299;42.004;24.868;2023-11-22T12:40:46;97711.56;;;13.17;100.00
6532;BME280;3299;42.004;24.868;2023-11-22T12:43:13;97698.72;;;13.15;100.00
6532;BME280;3299;42.004;24.868;2023-11-22T12:45:39;97779.09;;;13.55;100.00
6532;BME280;3299;42.004;24.868;2023-11-22T12:48:24;97801.38;;;13.67;100.00
6532;BME280;3299;42.004;24.868;2023-11-22T12:50:51;97735.09;;;13.25;100.00
6532;BME280;3299;42.004;24.868;2023-11-22T12:53:18;97759.41;;;13.33;100.00
6532;BME280;3299;42.004;24.868;2023-11-22T12:55:47;97793.47;;;13.49;100.00
6532;BME280;3299;42.004;24.868;2023-11-22T12:58:25;97767.88;;;13.35;100.00
6532;BME280;3299;42.004;24.868;2023-11-22T13:00:52;97763.53;;;13.26;100.00
6532;BME280;3299;42.004;24.868;2023-11-22T13:03:28;97814.81;;;13.53;100.00
6532;BME280;3299;42.004;24.868;2023-11-22T13:05:57;97762.03;;;13.14;100.00
6532;BME280;3299;42.004;24.868;2023-11-22T13:08:22;97772.00;;;13.28;100.00
6532;BME280;3299;42.004;24.868;2023-11-22T13:10:50;97834.63;;;13.63;100.00
6532;BME280;3299;42.004;24.868;2023-11-22T13:13:25;97742.19;;;13.04;100.00